Time;durP1;ratioP1;P1;durP2;ratioP2;P2;SDS_P1;SDS_P2;PMS_P1;PMS_P2;Temp;Humidity;BMP_temperature;BMP_pressure;BME280_temperature;BME280_humidity;BME280_pressure;Samples;Min_cycle;Max_cycle;Signal;HPM_P1;HPM_P2
2023/08/27 00:01:18;;;;;;;11.13;8.77;;;13.50;99.90;;;;;;5032147;28;20464;-70
2023/08/27 00:03:44;;;;;;;9.60;8.60;;;13.50;99.90;;;;;;5041732;28;20041;-70
2023/08/27 00:06:10;;;;;;;9.00;7.88;;;13.50;99.90;;;;;;5036305;28;20124;-70
2023/08/27 00:08:35;;;;;;;10.82;8.45;;;13.40;99.90;;;;;;5042513;28;20045;-69
2023/08/27 00:11:03;;;;;;;10.07;8.30;;;13.50;99.90;;;;;;5042556;28;20048;-70
2023/08/27 00:13:29;;;;;;;13.07;8.57;;;13.40;99.90;;;;;;5043681;28;20072;-70
2023/08/27 00:15:54;;;;;;;12.80;8.65;;;13.50;99.90;;;;;;5040737;28;20080;-70
2023/08/27 00:18:20;;;;;;;11.25;8.40;;;13.40;99.90;;;;;;5037314;28;20488;-69
2023/08/27 00:20:47;;;;;;;9.70;8.30;;;13.40;99.90;;;;;;5041570;28;20041;-70
2023/08/27 00:23:12;;;;;;;11.50;8.88;;;13.40;99.90;;;;;;5038001;28;20044;-69
2023/08/27 00:25:38;;;;;;;12.10;8.05;;;13.30;99.90;;;;;;5037161;28;20048;-70
2023/08/27 00:28:04;;;;;;;9.57;8.57;;;13.30;99.90;;;;;;5032134;28;20045;-70
2023/08/27 00:30:30;;;;;;;12.48;7.53;;;13.30;99.90;;;;;;5044670;28;20451;-69
2023/08/27 00:32:56;;;;;;;9.65;7.40;;;13.40;99.90;;;;;;5053544;28;20459;-69
2023/08/27 00:35:21;;;;;;;10.07;7.40;;;13.30;99.90;;;;;;5044540;28;20041;-69
2023/08/27 00:37:47;;;;;;;10.65;8.60;;;13.30;99.90;;;;;;5047797;28;20099;-70
2023/08/27 00:40:13;;;;;;;9.60;8.13;;;13.30;99.90;;;;;;5029190;28;20319;-69
2023/08/27 00:42:39;;;;;;;9.82;7.72;;;13.30;99.90;;;;;;5041738;28;20135;-69
2023/08/27 00:45:06;;;;;;;9.02;7.72;;;13.40;99.90;;;;;;5041173;28;20204;-69
2023/08/27 00:47:37;;;;;;;8.88;8.00;;;13.30;99.90;;;;;;5038418;28;20045;-69
2023/08/27 00:50:06;;;;;;;10.95;8.48;;;13.30;99.90;;;;;;5043136;28;20772;-69
2023/08/27 00:52:32;;;;;;;11.02;8.23;;;13.30;99.90;;;;;;5039399;28;20052;-69
2023/08/27 00:55:00;;;;;;;8.75;7.68;;;13.40;99.90;;;;;;5032406;28;20059;-70
2023/08/27 00:57:26;;;;;;;10.27;8.73;;;13.30;99.90;;;;;;5030596;28;20041;-69
2023/08/27 00:59:55;;;;;;;11.65;8.38;;;13.40;99.90;;;;;;5040408;28;20458;-71
2023/08/27 01:02:21;;;;;;;10.07;8.35;;;13.30;99.90;;;;;;5038331;28;20045;-69
2023/08/27 01:04:47;;;;;;;9.68;8.68;;;13.40;99.90;;;;;;5030886;28;20118;-69
2023/08/27 01:07:26;;;;;;;9.77;8.30;;;13.40;99.90;;;;;;5024723;28;20492;-70
2023/08/27 01:10:02;;;;;;;11.23;8.73;;;13.40;99.90;;;;;;5035817;28;20501;-70
2023/08/27 01:12:59;;;;;;;11.63;9.32;;;13.50;99.90;;;;;;5033661;28;20104;-70
2023/08/27 01:15:27;;;;;;;10.55;8.65;;;13.50;99.90;;;;;;5006373;28;20036;-70
2023/08/27 01:17:54;;;;;;;12.38;10.00;;;13.60;99.90;;;;;;5039169;28;20587;-70
2023/08/27 01:20:20;;;;;;;12.45;9.60;;;13.60;99.90;;;;;;5039748;28;20077;-70
2023/08/27 01:22:46;;;;;;;13.82;9.77;;;13.60;99.90;;;;;;5047825;28;20072;-69
2023/08/27 01:25:16;;;;;;;11.23;10.10;;;13.50;99.90;;;;;;5044692;28;20064;-70
2023/08/27 01:27:50;;;;;;;10.93;9.55;;;13.60;99.90;;;;;;5045342;28;20037;-70
2023/08/27 01:30:50;;;;;;;16.23;10.18;;;13.60;99.90;;;;;;5043942;28;20048;-70
2023/08/27 01:33:28;;;;;;;11.27;9.70;;;13.60;99.90;;;;;;5040110;28;20049;-70
2023/08/27 01:35:55;;;;;;;11.68;9.98;;;13.60;99.90;;;;;;5035456;28;20099;-70
2023/08/27 01:38:21;;;;;;;14.38;10.73;;;13.70;99.90;;;;;;5045510;28;20517;-70
2023/08/27 01:40:46;;;;;;;14.05;9.95;;;13.60;99.90;;;;;;5048498;28;20550;-70
2023/08/27 01:43:12;;;;;;;12.20;9.98;;;13.60;99.90;;;;;;5044588;28;20040;-70
2023/08/27 01:45:38;;;;;;;15.52;10.70;;;13.60;99.90;;;;;;5045471;28;20041;-70
2023/08/27 01:48:04;;;;;;;12.75;10.00;;;13.60;99.90;;;;;;5038840;28;20057;-70
2023/08/27 01:50:29;;;;;;;15.05;10.35;;;13.60;99.90;;;;;;5040237;28;20489;-70
2023/08/27 01:52:55;;;;;;;14.45;10.55;;;13.60;99.90;;;;;;5028111;28;20052;-70
2023/08/27 01:55:21;;;;;;;12.25;10.05;;;13.60;99.90;;;;;;5046252;28;20450;-69
2023/08/27 01:57:46;;;;;;;13.68;10.13;;;13.60;99.90;;;;;;5032546;28;20052;-70
2023/08/27 02:00:14;;;;;;;11.55;10.32;;;13.50;99.90;;;;;;5045273;28;20175;-70
2023/08/27 02:02:41;;;;;;;12.80;10.60;;;13.60;99.90;;;;;;5038180;28;20044;-70
2023/08/27 02:05:07;;;;;;;13.07;10.98;;;13.50;99.90;;;;;;5042670;28;20634;-70
2023/08/27 02:07:36;;;;;;;12.25;9.50;;;13.50;99.90;;;;;;5038097;28;22037;-70
2023/08/27 02:10:03;;;;;;;14.68;10.80;;;13.50;99.90;;;;;;5039600;28;20412;-70
2023/08/27 02:12:29;;;;;;;11.88;9.65;;;13.50;99.90;;;;;;5042426;28;20048;-71
2023/08/27 02:14:54;;;;;;;12.35;9.60;;;13.50;99.90;;;;;;5041134;28;20053;-70
2023/08/27 02:17:20;;;;;;;17.98;10.25;;;13.40;99.90;;;;;;5038789;28;20041;-71
2023/08/27 02:19:46;;;;;;;13.55;10.10;;;13.50;99.90;;;;;;5031833;28;20090;-70
2023/08/27 02:22:11;;;;;;;12.02;9.88;;;13.50;99.90;;;;;;5037932;28;20401;-70
2023/08/27 02:24:37;;;;;;;11.75;10.55;;;13.50;99.90;;;;;;5044510;28;20041;-70
2023/08/27 02:27:03;;;;;;;14.02;9.90;;;13.50;99.90;;;;;;5041911;28;20186;-70
2023/08/27 02:29:28;;;;;;;11.20;9.95;;;13.40;99.90;;;;;;5048258;28;20098;-71
2023/08/27 02:31:54;;;;;;;12.60;9.43;;;13.40;99.90;;;;;;5038503;28;20052;-70
2023/08/27 02:34:20;;;;;;;11.52;10.32;;;13.30;99.90;;;;;;5039078;28;20492;-70
2023/08/27 02:36:45;;;;;;;12.90;10.20;;;13.50;99.90;;;;;;5043243;28;20493;-70
2023/08/27 02:39:11;;;;;;;16.05;10.63;;;13.40;99.90;;;;;;5039821;28;20485;-70
2023/08/27 02:41:37;;;;;;;13.23;10.70;;;13.40;99.90;;;;;;5045634;28;20067;-70
2023/08/27 02:44:03;;;;;;;13.13;9.38;;;13.40;99.90;;;;;;5041923;28;20048;-70
2023/08/27 02:46:29;;;;;;;15.90;10.75;;;13.30;99.90;;;;;;5038140;28;20403;-70
2023/08/27 02:48:54;;;;;;;15.25;10.95;;;13.30;99.90;;;;;;5037750;28;20630;-70
2023/08/27 02:51:20;;;;;;;14.32;11.80;;;13.20;99.90;;;;;;5038926;28;20030;-70
2023/08/27 02:53:50;;;;;;;12.18;10.63;;;13.10;99.90;;;;;;5041947;28;20401;-70
2023/08/27 02:56:17;;;;;;;12.50;10.70;;;13.10;99.90;;;;;;5042565;28;20041;-70
2023/08/27 02:58:42;;;;;;;13.52;11.05;;;13.10;99.90;;;;;;5043263;28;20175;-70
2023/08/27 03:01:09;;;;;;;12.70;10.93;;;13.10;99.90;;;;;;5041089;28;20131;-70
2023/08/27 03:03:35;;;;;;;12.70;10.73;;;13.10;99.90;;;;;;5034213;28;20041;-70
2023/08/27 03:06:01;;;;;;;14.82;10.95;;;13.20;99.90;;;;;;5045422;28;20041;-70
2023/08/27 03:08:26;;;;;;;16.10;10.50;;;13.10;99.90;;;;;;5042726;28;20956;-70
2023/08/27 03:10:52;;;;;;;12.85;10.55;;;13.20;99.90;;;;;;5020336;28;20045;-70
2023/08/27 03:13:18;;;;;;;15.60;11.00;;;13.10;99.90;;;;;;5040720;28;20122;-70
2023/08/27 03:15:43;;;;;;;14.25;11.02;;;13.10;99.90;;;;;;5039529;28;20419;-70
2023/08/27 03:18:10;;;;;;;11.90;10.55;;;13.20;99.90;;;;;;5023139;28;21564;-70
2023/08/27 03:20:36;;;;;;;14.98;11.38;;;13.20;99.90;;;;;;5042218;28;20041;-70
2023/08/27 03:23:02;;;;;;;12.20;11.00;;;13.30;99.90;;;;;;5030792;28;20041;-70
2023/08/27 03:25:27;;;;;;;17.13;12.00;;;13.20;99.90;;;;;;5041752;28;20167;-70
2023/08/27 03:27:53;;;;;;;14.10;11.82;;;13.20;99.90;;;;;;5023469;28;20053;-70
2023/08/27 03:30:19;;;;;;;14.13;11.52;;;13.20;99.90;;;;;;5043170;28;20049;-69
2023/08/27 03:32:44;;;;;;;13.55;11.90;;;13.40;99.90;;;;;;5042457;28;20041;-70
2023/08/27 03:35:11;;;;;;;17.75;11.73;;;13.40;99.90;;;;;;5037407;28;20551;-70
2023/08/27 03:37:37;;;;;;;15.35;12.18;;;13.40;99.90;;;;;;5035314;28;20046;-70
2023/08/27 03:40:03;;;;;;;17.08;12.13;;;13.40;99.90;;;;;;5038947;28;20415;-70
2023/08/27 03:42:28;;;;;;;14.10;11.95;;;13.50;99.90;;;;;;5036272;28;20071;-70
2023/08/27 03:44:54;;;;;;;15.50;12.43;;;13.40;99.90;;;;;;5041713;28;20037;-70
2023/08/27 03:50:22;;;;;;;18.02;11.60;;;13.50;99.90;;;;;;4848705;26;20550;-70
2023/08/27 03:52:48;;;;;;;19.33;13.30;;;13.60;99.90;;;;;;5022665;28;20105;-69
2023/08/27 03:55:14;;;;;;;14.00;11.63;;;13.60;99.90;;;;;;5030074;28;20649;-70
2023/08/27 03:57:40;;;;;;;20.13;12.43;;;13.60;99.90;;;;;;5030239;28;20045;-71
2023/08/27 04:00:06;;;;;;;16.38;12.52;;;13.70;99.90;;;;;;5021878;28;20053;-69
2023/08/27 04:02:31;;;;;;;16.40;12.45;;;13.70;99.90;;;;;;5023954;28;20038;-70
2023/08/27 04:04:57;;;;;;;14.20;11.35;;;13.60;99.90;;;;;;5025669;28;20092;-69
2023/08/27 04:07:23;;;;;;;15.75;11.88;;;13.60;99.90;;;;;;5019541;28;20071;-70
2023/08/27 04:09:48;;;;;;;18.10;12.23;;;13.70;99.90;;;;;;5025158;28;20045;-70
2023/08/27 04:12:14;;;;;;;16.52;12.00;;;13.70;99.90;;;;;;5017137;28;20038;-70
2023/08/27 04:14:40;;;;;;;15.75;10.88;;;13.70;99.90;;;;;;5027607;28;20127;-70
2023/08/27 04:17:05;;;;;;;16.13;12.20;;;13.70;99.90;;;;;;5024616;28;20120;-70
2023/08/27 04:19:31;;;;;;;15.85;11.18;;;13.70;99.90;;;;;;5018273;28;20050;-70
2023/08/27 04:21:56;;;;;;;14.05;12.05;;;13.80;99.90;;;;;;5012212;28;20034;-70
2023/08/27 04:24:22;;;;;;;14.75;12.23;;;13.80;99.90;;;;;;5024189;28;20049;-70
2023/08/27 04:26:48;;;;;;;17.65;11.13;;;13.80;99.90;;;;;;5019271;28;20050;-70
2023/08/27 04:29:14;;;;;;;19.63;11.82;;;13.80;99.90;;;;;;5019438;28;20053;-71
2023/08/27 04:31:40;;;;;;;14.68;11.52;;;13.70;99.90;;;;;;5002196;28;20608;-72
2023/08/27 04:34:05;;;;;;;15.27;11.68;;;13.70;99.90;;;;;;5008299;28;20111;-69
2023/08/27 04:36:31;;;;;;;13.43;11.85;;;13.70;99.90;;;;;;5018948;28;20045;-72
2023/08/27 04:38:57;;;;;;;14.07;12.32;;;13.70;99.90;;;;;;5006548;28;20041;-69
2023/08/27 04:41:22;;;;;;;13.40;11.45;;;13.80;99.90;;;;;;5014986;28;20049;-70
2023/08/27 04:43:48;;;;;;;17.65;12.05;;;13.70;99.90;;;;;;4994698;28;20111;-68
2023/08/27 04:46:13;;;;;;;14.55;12.05;;;13.80;99.90;;;;;;5023981;28;20076;-70
2023/08/27 04:48:39;;;;;;;13.82;11.27;;;13.70;99.90;;;;;;5007015;28;20050;-69
2023/08/27 04:51:05;;;;;;;19.13;12.88;;;13.80;99.90;;;;;;5000172;28;20046;-70
2023/08/27 04:53:30;;;;;;;16.05;12.32;;;13.80;99.90;;;;;;5003406;28;20046;-73
2023/08/27 04:55:56;;;;;;;15.10;11.93;;;13.90;99.90;;;;;;5003481;28;20046;-72
2023/08/27 04:58:22;;;;;;;20.48;12.63;;;13.80;99.90;;;;;;5000684;28;20564;-73
2023/08/27 05:00:48;;;;;;;14.65;11.52;;;14.00;99.90;;;;;;5001851;28;20235;-73
2023/08/27 05:03:13;;;;;;;16.38;11.95;;;14.00;99.90;;;;;;5002516;28;20489;-73
2023/08/27 05:05:39;;;;;;;16.42;12.77;;;14.10;99.90;;;;;;4993703;28;20057;-73
2023/08/27 05:08:05;;;;;;;17.48;12.32;;;14.10;99.90;;;;;;4988314;28;20042;-72
2023/08/27 05:10:31;;;;;;;15.30;12.18;;;14.10;99.90;;;;;;4999240;28;20113;-73
2023/08/27 05:12:57;;;;;;;18.60;12.82;;;14.20;99.90;;;;;;5002437;28;20042;-73
2023/08/27 05:15:22;;;;;;;15.27;12.57;;;14.20;99.90;;;;;;4995325;28;20073;-73
2023/08/27 05:17:48;;;;;;;16.75;12.13;;;14.30;99.90;;;;;;5019037;28;20432;-73
2023/08/27 05:20:15;;;;;;;18.55;12.25;;;14.30;99.90;;;;;;4996331;28;20481;-72
2023/08/27 05:22:41;;;;;;;15.30;12.63;;;14.30;99.90;;;;;;4995349;28;20038;-73
2023/08/27 05:25:08;;;;;;;17.92;12.77;;;14.40;99.90;;;;;;5000693;28;20124;-72
2023/08/27 05:27:34;;;;;;;15.15;13.02;;;14.50;99.90;;;;;;5022933;28;20120;-72
2023/08/27 05:30:00;;;;;;;15.18;11.50;;;14.50;99.90;;;;;;5022093;28;20188;-72
2023/08/27 05:32:25;;;;;;;17.02;12.90;;;14.40;99.90;;;;;;5004195;28;20041;-73
2023/08/27 05:34:53;;;;;;;14.43;12.68;;;14.40;99.90;;;;;;5001311;28;20049;-73
2023/08/27 05:37:19;;;;;;;17.65;13.02;;;14.50;99.90;;;;;;4996254;28;20045;-72
2023/08/27 05:39:45;;;;;;;15.77;12.85;;;14.50;99.90;;;;;;5011938;28;20034;-72
2023/08/27 05:42:11;;;;;;;20.05;13.52;;;14.40;99.90;;;;;;5002140;28;20042;-72
2023/08/27 05:44:36;;;;;;;17.98;13.18;;;14.50;99.90;;;;;;5002765;28;20111;-72
2023/08/27 05:47:02;;;;;;;17.52;13.07;;;14.60;99.90;;;;;;5006044;28;20125;-72
2023/08/27 05:49:28;;;;;;;18.15;14.23;;;14.60;99.90;;;;;;4991198;28;20436;-73
2023/08/27 05:51:53;;;;;;;18.85;13.25;;;14.60;99.90;;;;;;5006199;28;20046;-73
2023/08/27 05:54:19;;;;;;;22.27;15.27;;;14.70;99.90;;;;;;4999306;28;20147;-72
2023/08/27 05:56:45;;;;;;;19.38;13.50;;;14.60;99.90;;;;;;5001348;28;20042;-76
2023/08/27 05:59:13;;;;;;;20.13;14.23;;;14.70;99.90;;;;;;4996692;28;20616;-73
2023/08/27 06:01:41;;;;;;;16.70;13.13;;;14.70;99.90;;;;;;4999786;28;20277;-74
2023/08/27 06:04:06;;;;;;;18.38;13.63;;;14.70;99.90;;;;;;5001712;28;20041;-75
2023/08/27 06:06:32;;;;;;;18.55;14.23;;;14.60;99.90;;;;;;5008960;28;20041;-73
2023/08/27 06:08:58;;;;;;;17.23;13.38;;;14.60;99.90;;;;;;5004175;28;20050;-73
2023/08/27 06:11:23;;;;;;;17.55;14.50;;;14.60;99.90;;;;;;5004229;28;20045;-73
2023/08/27 06:13:49;;;;;;;22.42;15.23;;;14.60;99.90;;;;;;5006428;28;20046;-73
2023/08/27 06:16:14;;;;;;;18.52;15.20;;;14.60;99.90;;;;;;5002301;28;20308;-74
2023/08/27 06:18:40;;;;;;;15.43;12.48;;;14.60;99.90;;;;;;5008894;28;20049;-73
2023/08/27 06:21:06;;;;;;;12.82;11.27;;;14.70;99.90;;;;;;5003492;28;20050;-73
2023/08/27 06:23:32;;;;;;;15.05;10.05;;;14.80;99.90;;;;;;5011715;28;20125;-74
2023/08/27 06:26:05;;;;;;;12.82;8.88;;;14.80;99.90;;;;;;5002892;28;20512;-74
2023/08/27 06:28:31;;;;;;;10.50;7.72;;;14.90;99.90;;;;;;5005213;28;20050;-75
2023/08/27 06:30:56;;;;;;;11.05;8.05;;;14.80;99.90;;;;;;5008226;28;20053;-74
2023/08/27 06:33:22;;;;;;;9.57;6.05;;;14.90;99.90;;;;;;5007014;28;20412;-74
2023/08/27 06:35:48;;;;;;;13.43;6.47;;;14.90;99.90;;;;;;5004255;28;20076;-74
2023/08/27 06:38:14;;;;;;;6.28;4.90;;;15.00;99.90;;;;;;4987829;28;20752;-74
2023/08/27 06:40:39;;;;;;;8.45;5.18;;;15.00;99.90;;;;;;5007351;28;20042;-74
2023/08/27 06:43:05;;;;;;;7.85;4.47;;;15.10;99.90;;;;;;5002584;28;20053;-74
2023/08/27 06:45:31;;;;;;;7.97;5.07;;;15.10;99.90;;;;;;4999829;28;20054;-74
2023/08/27 06:47:56;;;;;;;8.73;5.50;;;15.20;99.90;;;;;;5005096;28;20046;-74
2023/08/27 06:50:22;;;;;;;9.02;5.78;;;15.20;99.90;;;;;;5003458;28;20038;-74
2023/08/27 06:52:48;;;;;;;9.23;6.20;;;15.10;99.90;;;;;;5007972;28;20056;-74
2023/08/27 06:55:13;;;;;;;10.18;7.22;;;15.20;99.90;;;;;;5008012;28;20145;-74
2023/08/27 06:57:39;;;;;;;12.63;7.93;;;15.30;99.90;;;;;;5014864;28;20038;-74
2023/08/27 07:00:12;;;;;;;11.27;8.68;;;15.30;99.90;;;;;;5004822;28;20050;-74
2023/08/27 07:02:37;;;;;;;14.52;8.50;;;15.30;99.90;;;;;;5002973;28;20042;-74
2023/08/27 07:05:08;;;;;;;11.18;7.60;;;15.40;99.90;;;;;;5001715;28;20063;-74
2023/08/27 07:07:38;;;;;;;12.95;8.90;;;15.60;99.90;;;;;;5006807;28;20052;-74
2023/08/27 07:10:05;;;;;;;12.20;8.27;;;15.70;99.90;;;;;;5004619;28;20045;-75
2023/08/27 07:12:35;;;;;;;9.50;7.45;;;15.80;99.90;;;;;;4988431;28;20042;-74
2023/08/27 07:15:02;;;;;;;13.20;7.30;;;15.90;99.90;;;;;;5003908;28;20053;-74
2023/08/27 07:17:28;;;;;;;9.25;6.03;;;16.00;99.90;;;;;;5006157;28;20273;-74
2023/08/27 07:19:54;;;;;;;8.90;5.68;;;16.00;99.90;;;;;;5007092;28;20585;-74
2023/08/27 07:22:20;;;;;;;7.53;4.40;;;15.90;99.90;;;;;;5018578;28;20057;-74
2023/08/27 07:24:46;;;;;;;6.10;3.47;;;15.90;99.90;;;;;;5000144;28;20057;-74
2023/08/27 07:27:12;;;;;;;6.93;3.35;;;15.90;99.90;;;;;;4980689;28;20042;-74
2023/08/27 07:29:38;;;;;;;4.32;2.50;;;15.90;99.90;;;;;;4997387;28;20049;-75
2023/08/27 07:32:04;;;;;;;8.00;3.40;;;15.90;99.90;;;;;;5003710;28;20047;-74
2023/08/27 07:34:32;;;;;;;4.57;2.60;;;16.00;99.90;;;;;;5002746;28;20050;-74
2023/08/27 07:36:58;;;;;;;6.72;2.28;;;16.30;99.90;;;;;;5019937;28;20037;-74
2023/08/27 07:39:24;;;;;;;3.55;1.52;;;16.60;99.90;;;;;;5004058;28;20111;-75
2023/08/27 07:41:50;;;;;;;3.70;1.42;;;17.00;99.90;;;;;;4991402;28;20082;-74
2023/08/27 07:44:16;;;;;;;3.53;1.60;;;17.20;99.90;;;;;;5002159;28;20033;-74
2023/08/27 07:46:42;;;;;;;2.33;1.20;;;17.40;99.90;;;;;;5000795;28;20053;-75
2023/08/27 07:49:09;;;;;;;2.60;0.95;;;17.60;99.90;;;;;;4998086;28;20398;-75
2023/08/27 07:51:35;;;;;;;1.67;1.08;;;17.80;99.90;;;;;;5006102;28;20042;-74
2023/08/27 07:54:00;;;;;;;1.60;0.80;;;17.90;99.90;;;;;;5003674;28;20033;-75
2023/08/27 07:56:26;;;;;;;1.73;0.90;;;18.10;99.90;;;;;;5004842;28;20041;-73
2023/08/27 07:58:52;;;;;;;1.48;0.77;;;18.10;99.90;;;;;;5001554;28;20058;-74
2023/08/27 08:01:18;;;;;;;1.98;1.00;;;18.10;99.90;;;;;;4981890;28;20045;-74
2023/08/27 08:03:45;;;;;;;1.55;0.88;;;18.20;99.90;;;;;;4998555;28;20507;-75
2023/08/27 08:06:10;;;;;;;3.67;0.85;;;18.30;99.90;;;;;;5005703;28;20057;-74
2023/08/27 08:08:36;;;;;;;1.48;0.70;;;18.30;99.90;;;;;;5002272;28;20046;-75
2023/08/27 08:11:02;;;;;;;1.25;0.70;;;18.30;99.90;;;;;;5004146;28;20194;-74
2023/08/27 08:13:28;;;;;;;1.48;0.77;;;18.30;99.90;;;;;;4995760;28;20045;-74
2023/08/27 08:15:53;;;;;;;1.15;0.60;;;18.40;99.90;;;;;;5000386;28;20046;-76
2023/08/27 08:18:19;;;;;;;1.40;0.80;;;18.50;99.90;;;;;;5000427;28;20049;-74
2023/08/27 08:20:45;;;;;;;1.60;0.80;;;18.50;99.90;;;;;;5003502;28;20046;-73
2023/08/27 08:23:11;;;;;;;1.02;0.52;;;18.50;99.90;;;;;;5004105;28;20096;-73
2023/08/27 08:25:41;;;;;;;1.15;0.70;;;18.50;99.90;;;;;;5001876;28;20041;-75
2023/08/27 08:28:07;;;;;;;1.52;0.70;;;18.70;99.90;;;;;;5021026;28;20624;-73
2023/08/27 08:30:32;;;;;;;1.02;0.70;;;18.70;99.90;;;;;;5003110;28;20165;-75
2023/08/27 08:32:58;;;;;;;2.33;0.80;;;18.80;99.90;;;;;;4998444;28;20507;-75
2023/08/27 08:35:24;;;;;;;2.13;0.80;;;18.80;99.90;;;;;;5003265;28;20045;-77
2023/08/27 08:37:50;;;;;;;1.98;0.85;;;19.00;99.90;;;;;;5003173;28;20053;-76
2023/08/27 08:40:16;;;;;;;1.95;0.75;;;19.10;99.90;;;;;;5004588;28;20038;-74
2023/08/27 08:43:05;;;;;;;2.13;0.80;;;19.20;99.90;;;;;;4999568;28;20104;-75
2023/08/27 08:45:53;;;;;;;1.48;0.70;;;19.30;99.90;;;;;;4996025;28;20493;-73
2023/08/27 08:48:22;;;;;;;3.17;0.80;;;19.30;99.90;;;;;;5000066;28;20740;-74
2023/08/27 08:50:52;;;;;;;1.65;0.80;;;19.20;99.90;;;;;;4999711;28;20046;-74
2023/08/27 08:53:19;;;;;;;1.67;0.77;;;19.30;99.90;;;;;;4998246;28;20042;-75
2023/08/27 08:55:52;;;;;;;2.03;0.80;;;19.30;99.90;;;;;;5013974;28;20096;-75
2023/08/27 08:58:19;;;;;;;1.50;0.75;;;19.20;99.90;;;;;;4994438;28;20184;-76
2023/08/27 09:00:45;;;;;;;1.55;0.80;;;19.00;99.90;;;;;;4996267;28;20049;-76
2023/08/27 09:03:14;;;;;;;2.35;1.00;;;18.90;99.90;;;;;;4976047;28;20056;-75
2023/08/27 09:05:40;;;;;;;1.92;0.80;;;18.70;99.90;;;;;;5003144;28;20053;-77
2023/08/27 09:08:09;;;;;;;1.20;0.70;;;18.60;99.90;;;;;;4998025;28;20145;-76
2023/08/27 09:10:35;;;;;;;1.65;0.88;;;18.70;99.90;;;;;;4996822;28;20497;-75
2023/08/27 09:13:05;;;;;;;1.33;0.65;;;18.90;99.90;;;;;;4996924;28;20056;-74
2023/08/27 09:15:30;;;;;;;2.50;0.82;;;19.10;99.90;;;;;;4999258;28;20061;-75
2023/08/27 09:17:56;;;;;;;2.67;0.75;;;19.30;99.90;;;;;;4995851;28;20170;-76
2023/08/27 09:20:22;;;;;;;2.20;1.00;;;19.50;99.90;;;;;;4995944;28;20046;-75
2023/08/27 09:22:48;;;;;;;5.07;1.35;;;19.70;99.90;;;;;;4992764;28;20150;-77
2023/08/27 09:25:14;;;;;;;3.28;1.15;;;19.70;99.90;;;;;;4998535;28;20046;-78
2023/08/27 09:27:40;;;;;;;4.30;1.10;;;19.70;99.90;;;;;;5000376;28;20061;-78
2023/08/27 09:30:07;;;;;;;2.83;1.10;;;19.60;99.90;;;;;;5014669;28;20116;-77
2023/08/27 09:32:33;;;;;;;2.90;1.13;;;19.70;99.90;;;;;;4999805;28;20049;-76
2023/08/27 09:35:03;;;;;;;2.15;1.10;;;19.80;99.90;;;;;;4993519;28;20057;-76
2023/08/27 09:37:39;;;;;;;3.30;1.23;;;19.60;99.90;;;;;;5001447;28;20046;-75
2023/08/27 09:40:09;;;;;;;4.43;1.27;;;19.60;99.90;;;;;;4998371;28;20041;-77
2023/08/27 09:42:35;;;;;;;3.33;1.27;;;19.50;99.90;;;;;;5004121;28;20452;-77
2023/08/27 09:45:00;;;;;;;3.25;1.10;;;19.40;99.90;;;;;;5001329;28;20081;-77
2023/08/27 09:47:35;;;;;;;2.40;1.10;;;19.30;99.90;;;;;;4965951;28;20068;-76
2023/08/27 09:50:23;;;;;;;2.15;1.10;;;19.10;99.90;;;;;;5002747;28;20046;-78
2023/08/27 09:52:48;;;;;;;5.90;1.40;;;19.10;99.90;;;;;;4998121;28;20045;-78
2023/08/27 09:55:18;;;;;;;2.53;1.30;;;19.00;99.90;;;;;;5011405;28;20052;-78
2023/08/27 09:57:51;;;;;;;3.80;1.75;;;18.80;99.90;;;;;;4982620;28;20505;-78
2023/08/27 10:00:18;;;;;;;3.15;1.35;;;18.70;99.90;;;;;;4984725;28;20078;-76
2023/08/27 10:02:44;;;;;;;4.00;1.30;;;18.50;99.90;;;;;;4998554;28;20041;-76
2023/08/27 10:05:10;;;;;;;6.13;1.50;;;18.30;99.90;;;;;;5017035;28;20391;-77
2023/08/27 10:07:35;;;;;;;2.40;1.30;;;18.20;99.90;;;;;;4992123;28;20121;-78
2023/08/27 10:10:05;;;;;;;4.07;1.30;;;18.10;99.90;;;;;;5005414;28;20038;-77
2023/08/27 10:12:32;;;;;;;4.22;2.00;;;18.00;99.90;;;;;;5005424;28;20045;-79
2023/08/27 10:14:59;;;;;;;4.20;1.80;;;17.90;99.90;;;;;;5007995;28;20046;-79
2023/08/27 10:17:25;;;;;;;6.03;2.25;;;18.00;99.90;;;;;;5015891;28;20061;-82
2023/08/27 10:19:52;;;;;;;4.72;1.73;;;18.00;99.90;;;;;;4994967;28;20041;-78
2023/08/27 10:22:19;;;;;;;5.22;1.75;;;18.10;99.90;;;;;;5001617;28;20778;-81
2023/08/27 10:24:47;;;;;;;4.65;1.35;;;18.10;99.90;;;;;;5006228;28;20057;-81
2023/08/27 10:27:13;;;;;;;2.92;1.73;;;18.10;99.90;;;;;;5003158;28;20040;-80
2023/08/27 10:29:40;;;;;;;3.33;1.40;;;18.10;99.90;;;;;;4998195;28;20041;-80
2023/08/27 10:32:07;;;;;;;3.53;1.48;;;18.10;99.90;;;;;;5003363;28;20049;-79
2023/08/27 10:34:33;;;;;;;4.47;1.45;;;18.10;99.90;;;;;;5005339;28;20049;-80
2023/08/27 10:37:06;;;;;;;6.65;1.85;;;18.10;99.90;;;;;;5010322;28;20041;-79
2023/08/27 10:39:33;;;;;;;3.55;1.48;;;18.10;99.90;;;;;;5006563;28;20995;-77
2023/08/27 10:41:59;;;;;;;4.03;1.40;;;18.10;99.90;;;;;;5005990;28;20084;-77
2023/08/27 10:44:25;;;;;;;4.85;1.60;;;18.20;99.90;;;;;;4998724;28;20489;-77
2023/08/27 10:47:25;;;;;;;6.28;1.83;;;18.30;99.90;;;;;;5010940;28;20269;-76
2023/08/27 10:49:51;;;;;;;4.35;1.42;;;18.50;99.90;;;;;;5006530;28;20046;-80
2023/08/27 10:52:19;;;;;;;6.85;2.33;;;18.60;99.90;;;;;;5008961;28;20083;-80
2023/08/27 10:54:46;;;;;;;6.22;1.80;;;18.60;99.90;;;;;;5009673;28;20052;-77
2023/08/27 10:57:24;;;;;;;7.47;2.17;;;18.40;99.90;;;;;;5014656;28;20064;-77
2023/08/27 10:59:53;;;;;;;7.72;1.80;;;18.20;99.90;;;;;;5022052;28;20046;-77
2023/08/27 11:02:19;;;;;;;7.35;2.03;;;17.80;99.90;;;;;;5021124;28;20045;-77
2023/08/27 11:04:51;;;;;;;7.72;2.17;;;17.40;99.90;;;;;;5021635;28;20038;-75
2023/08/27 11:07:22;;;;;;;7.40;2.30;;;17.10;99.90;;;;;;5011219;28;20058;-78
2023/08/27 11:09:56;;;;;;;3.38;1.13;;;16.70;99.90;;;;;;5006850;28;20046;-76
2023/08/27 11:12:32;;;;;;;18.88;8.65;;;16.50;99.90;;;;;;5009644;28;20428;-77
2023/08/27 11:15:14;;;;;;;34.17;16.45;;;16.30;99.90;;;;;;5008418;28;20050;-74
2023/08/27 11:17:41;;;;;;;12.10;5.38;;;16.10;99.90;;;;;;4999603;28;20042;-74
2023/08/27 11:20:24;;;;;;;17.95;8.07;;;15.90;99.90;;;;;;5004740;28;20175;-75
2023/08/27 11:23:02;;;;;;;23.55;9.32;;;15.90;99.90;;;;;;4996831;28;20396;-76
2023/08/27 11:25:29;;;;;;;29.23;13.82;;;15.90;99.90;;;;;;4994495;28;20034;-76
2023/08/27 11:27:58;;;;;;;3.65;1.45;;;15.90;99.90;;;;;;5008468;28;20046;-76
2023/08/27 11:30:25;;;;;;;3.80;1.30;;;15.90;99.90;;;;;;5001461;28;20551;-77
2023/08/27 11:32:51;;;;;;;8.50;3.45;;;15.90;99.90;;;;;;5007639;28;20050;-77
2023/08/27 11:35:28;;;;;;;3.83;1.48;;;15.90;99.90;;;;;;5001506;28;20046;-78
2023/08/27 11:37:54;;;;;;;6.68;2.42;;;15.90;99.90;;;;;;5005266;28;20077;-78
2023/08/27 11:40:22;;;;;;;7.47;1.92;;;16.00;99.90;;;;;;5003060;28;20692;-78
2023/08/27 11:42:55;;;;;;;10.25;4.38;;;16.10;99.90;;;;;;5006037;28;20507;-78
2023/08/27 11:45:30;;;;;;;;;;;16.20;99.90;;;;;;5003839;28;20058;-79
2023/08/27 11:48:00;;;;;;;3.35;1.27;;;16.20;99.90;;;;;;5007223;28;20265;-73
2023/08/27 11:50:26;;;;;;;10.35;4.93;;;16.40;99.90;;;;;;5008798;28;20065;-66
2023/08/27 11:52:54;;;;;;;6.88;3.05;;;16.70;99.90;;;;;;5006299;28;20455;-68
2023/08/27 11:55:22;;;;;;;3.42;0.90;;;17.00;99.90;;;;;;4993763;28;20084;-67
2023/08/27 11:57:51;;;;;;;2.25;1.00;;;17.00;99.90;;;;;;4984629;28;20046;-68
2023/08/27 12:00:17;;;;;;;9.07;4.50;;;17.10;99.90;;;;;;5020805;28;20099;-68
2023/08/27 12:02:43;;;;;;;5.55;2.67;;;17.30;99.90;;;;;;4993615;28;20045;-68
2023/08/27 12:05:09;;;;;;;4.28;1.77;;;17.40;99.90;;;;;;5007644;28;20046;-68
2023/08/27 12:07:35;;;;;;;14.88;7.32;;;17.70;99.90;;;;;;5003463;28;20064;-68
2023/08/27 12:10:08;;;;;;;3.80;1.80;;;17.80;99.90;;;;;;5004071;28;20034;-68
2023/08/27 12:12:46;;;;;;;3.75;1.25;;;18.00;99.90;;;;;;5005681;28;20500;-68
2023/08/27 12:15:13;;;;;;;4.30;1.85;;;18.20;99.90;;;;;;5000457;28;20045;-68
2023/08/27 12:17:38;;;;;;;4.63;1.55;;;18.40;99.90;;;;;;4993106;28;20058;-68
2023/08/27 12:20:07;;;;;;;2.65;1.20;;;18.70;99.90;;;;;;5002734;28;20046;-68
2023/08/27 12:22:45;;;;;;;3.78;1.38;;;19.00;99.90;;;;;;5000636;28;20041;-68
2023/08/27 12:25:11;;;;;;;7.70;2.70;;;19.20;99.90;;;;;;4990136;28;20054;-68
2023/08/27 12:27:38;;;;;;;3.03;1.20;;;19.40;99.90;;;;;;5003795;28;20033;-68
2023/08/27 12:30:06;;;;;;;4.53;2.17;;;19.30;99.90;;;;;;5006812;28;20046;-69
2023/08/27 12:32:34;;;;;;;4.70;1.95;;;19.20;99.90;;;;;;4997126;28;20041;-68
2023/08/27 12:35:00;;;;;;;5.80;2.13;;;19.00;99.90;;;;;;4993974;28;20131;-68
2023/08/27 12:37:26;;;;;;;6.70;1.88;;;19.00;99.90;;;;;;4996138;28;20052;-68
2023/08/27 12:39:53;;;;;;;7.38;2.33;;;19.20;99.90;;;;;;5001675;28;20046;-66
2023/08/27 12:42:18;;;;;;;4.60;1.88;;;19.40;99.90;;;;;;4999572;28;20041;-69